Kershaw, South Carolina
Current Conditions -  °F | °C
As of 5:15 PM on Saturday 25 Oct 2014 (Local Time) from KCDN Reporting Station
Clear Clear  
Wind Chill: 72°   Ceiling: Unl
Heat Index: 72°   Visibility: 10mi
Dew Point: 37°   Wind: 8mph
Humidity: 29%   Direction: 310°NW
Pressure: 29.96"   Gusts: NA
Location:  34.55°N, 80.58°W
Report Text: KCDN 252115Z AUTO 31007KT 10SM CLR 22/03 A2996 RMK AO2 TSNO
Loading
Personal Weather Stations






























Interactive Weather Map
Tropical Storm Tracking
New forecast layout! Learn more

10-Day Weather Forecast

Advertisements
Track Severe Weather on mobile